Time;durP1;ratioP1;P1;durP2;ratioP2;P2;SDS_P1;SDS_P2;PMS_P1;PMS_P2;Temp;Humidity;BMP_temperature;BMP_pressure;BME280_temperature;BME280_humidity;BME280_pressure;Samples;Min_cycle;Max_cycle;Signal;HPM_P1;HPM_P2
2023/02/04 00:00:05;;;;;;;;;;;2.20;81.30;;;;;;5005193;28;89166;-37
2023/02/04 00:02:30;;;;;;;;;;;2.20;81.20;;;;;;5004800;28;88779;-38
2023/02/04 00:04:56;;;;;;;;;;;2.20;81.20;;;;;;5004767;28;87201;-37
2023/02/04 00:07:21;;;;;;;;;;;2.20;81.20;;;;;;5005248;28;88773;-37
2023/02/04 00:09:48;;;;;;;;;;;2.20;81.30;;;;;;5005325;28;88833;-37
2023/02/04 00:12:14;;;;;;;;;;;2.20;81.20;;;;;;5004758;28;87149;-37
2023/02/04 00:14:40;;;;;;;;;;;2.20;81.20;;;;;;5005092;28;88822;-37
2023/02/04 00:17:06;;;;;;;;;;;2.20;81.10;;;;;;5006985;28;90327;-37
2023/02/04 00:19:32;;;;;;;;;;;2.20;81.10;;;;;;5004894;28;88646;-38
2023/02/04 00:21:58;;;;;;;;;;;2.10;81.10;;;;;;5004479;28;89662;-37
2023/02/04 00:24:23;;;;;;;;;;;2.20;81.10;;;;;;5004806;28;87121;-37
2023/02/04 00:26:49;;;;;;;;;;;2.10;81.20;;;;;;5004911;28;88795;-37
2023/02/04 00:29:14;;;;;;;;;;;2.20;81.20;;;;;;5003873;28;89636;-37
2023/02/04 00:31:40;;;;;;;;;;;2.20;81.10;;;;;;5004830;28;87186;-38
2023/02/04 00:34:05;;;;;;;;;;;2.20;81.10;;;;;;5005328;28;88745;-37
2023/02/04 00:36:31;;;;;;;;;;;2.20;81.10;;;;;;5004616;28;88011;-37
2023/02/04 00:38:56;;;;;;;;;;;2.20;81.10;;;;;;5007477;28;86992;-37
2023/02/04 00:41:21;;;;;;;;;;;2.20;81.10;;;;;;5003901;28;89097;-37
2023/02/04 00:43:47;;;;;;;;;;;2.20;81.10;;;;;;5004422;28;87024;-37
2023/02/04 00:46:12;;;;;;;;;;;2.20;81.10;;;;;;5004191;28;88847;-37
2023/02/04 00:48:38;;;;;;;;;;;2.20;81.10;;;;;;5004101;28;88482;-37
2023/02/04 00:51:04;;;;;;;;;;;2.10;81.10;;;;;;5004319;28;87195;-37
2023/02/04 00:53:29;;;;;;;;;;;2.10;81.10;;;;;;5004461;28;88818;-37
2023/02/04 00:55:55;;;;;;;;;;;2.10;81.10;;;;;;5004230;28;87026;-37
2023/02/04 00:58:20;;;;;;;;;;;2.10;81.20;;;;;;5004471;28;86331;-37
2023/02/04 01:00:46;;;;;;;;;;;2.10;81.20;;;;;;5007101;28;87099;-37
2023/02/04 01:03:11;;;;;;;;;;;2.10;81.20;;;;;;5004423;28;87088;-37
2023/02/04 01:05:37;;;;;;;;;;;2.10;81.30;;;;;;5003057;28;87826;-37
2023/02/04 01:08:02;;;;;;;;;;;2.10;81.30;;;;;;5003679;28;89496;-37
2023/02/04 01:10:28;;;;;;;;;;;2.10;81.30;;;;;;5003276;28;87136;-37
2023/02/04 01:12:53;;;;;;;;;;;2.10;81.30;;;;;;5003994;28;88650;-37
2023/02/04 01:15:19;;;;;;;;;;;2.10;81.30;;;;;;5003921;28;88024;-37
2023/02/04 01:17:45;;;;;;;;;;;2.10;81.40;;;;;;5003814;28;86836;-38
2023/02/04 01:20:10;;;;;;;;;;;2.10;81.40;;;;;;5003925;28;88672;-37
2023/02/04 01:22:36;;;;;;;;;;;2.10;81.30;;;;;;5006992;28;88916;-37
2023/02/04 01:25:02;;;;;;;;;;;2.10;81.30;;;;;;5003793;28;88457;-37
2023/02/04 01:27:27;;;;;;;;;;;2.10;81.20;;;;;;5003354;28;89378;-37
2023/02/04 01:29:53;;;;;;;;;;;2.10;81.30;;;;;;5002992;28;87968;-37
2023/02/04 01:32:18;;;;;;;;;;;2.00;81.20;;;;;;5003656;28;89839;-37
2023/02/04 01:34:44;;;;;;;;;;;2.10;81.30;;;;;;5003151;28;89247;-37
2023/02/04 01:37:09;;;;;;;;;;;2.10;81.30;;;;;;5003912;28;87189;-38
2023/02/04 01:39:35;;;;;;;;;;;2.00;81.40;;;;;;5018782;28;90512;-37
2023/02/04 01:42:01;;;;;;;;;;;2.00;81.40;;;;;;5003385;28;89342;-37
2023/02/04 01:44:28;;;;;;;;;;;2.00;81.40;;;;;;5006327;28;87151;-37
2023/02/04 01:46:54;;;;;;;;;;;2.00;81.20;;;;;;5003843;28;88548;-37
2023/02/04 01:49:19;;;;;;;;;;;2.00;81.30;;;;;;5003537;28;87208;-37
2023/02/04 01:51:45;;;;;;;;;;;2.00;81.20;;;;;;5003783;28;87364;-37
2023/02/04 01:54:11;;;;;;;;;;;2.00;81.30;;;;;;5002187;28;89561;-38
2023/02/04 01:56:36;;;;;;;;;;;2.00;81.30;;;;;;5003255;28;87000;-37
2023/02/04 01:59:09;;;;;;;;;;;2.00;81.40;;;;;;5003328;28;87651;-38
2023/02/04 02:01:45;;;;;;;;;;;2.00;81.40;;;;;;5002940;28;89760;-37
2023/02/04 02:04:13;;;;;;;;;;;2.00;81.50;;;;;;5006097;28;87138;-37
2023/02/04 02:06:40;;;;;;;;;;;2.00;81.50;;;;;;5002205;28;89175;-38
2023/02/04 02:09:06;;;;;;;;;;;2.00;81.40;;;;;;5003128;28;87142;-38
2023/02/04 02:11:31;;;;;;;;;;;2.00;81.40;;;;;;5003392;28;87477;-37
2023/02/04 02:13:57;;;;;;;;;;;2.00;81.40;;;;;;5002630;28;89633;-37
2023/02/04 02:16:23;;;;;;;;;;;2.00;81.50;;;;;;5003189;28;87029;-37
2023/02/04 02:18:48;;;;;;;;;;;2.00;81.30;;;;;;5002373;28;88663;-37
2023/02/04 02:21:15;;;;;;;;;;;2.00;81.30;;;;;;5001498;28;89269;-37
2023/02/04 02:23:56;;;;;;;;;;;2.00;81.20;;;;;;5002918;28;87049;-37
2023/02/04 02:26:23;;;;;;;;;;;2.00;81.20;;;;;;5005214;28;89582;-37
2023/02/04 02:28:48;;;;;;;;;;;2.00;81.20;;;;;;5002877;28;87146;-37
2023/02/04 02:31:15;;;;;;;;;;;2.00;81.50;;;;;;5002869;28;88981;-37
2023/02/04 02:33:40;;;;;;;;;;;2.00;81.40;;;;;;5002366;28;89385;-37
2023/02/04 02:36:06;;;;;;;;;;;2.00;81.30;;;;;;5003560;28;86336;-37
2023/02/04 02:38:32;;;;;;;;;;;2.00;81.20;;;;;;5003093;28;86876;-37
2023/02/04 02:40:58;;;;;;;;;;;2.00;81.30;;;;;;5002674;28;88806;-37
2023/02/04 02:43:25;;;;;;;;;;;2.00;81.20;;;;;;5002398;28;88164;-37
2023/02/04 02:45:51;;;;;;;;;;;2.00;81.40;;;;;;5002483;28;90124;-37
2023/02/04 02:48:17;;;;;;;;;;;2.00;81.40;;;;;;5005081;28;88768;-37
2023/02/04 02:50:43;;;;;;;;;;;2.00;81.40;;;;;;5002561;28;87957;-37
2023/02/04 02:53:12;;;;;;;;;;;2.00;81.40;;;;;;5001802;28;89551;-38
2023/02/04 02:55:38;;;;;;;;;;;2.00;81.30;;;;;;5002297;28;87242;-37
2023/02/04 02:58:04;;;;;;;;;;;2.00;81.40;;;;;;5002583;28;88876;-37
2023/02/04 03:00:29;;;;;;;;;;;2.00;81.50;;;;;;5002627;28;88769;-37
2023/02/04 03:03:01;;;;;;;;;;;2.00;81.40;;;;;;5002402;28;87021;-37
2023/02/04 03:05:29;;;;;;;;;;;1.90;81.40;;;;;;5001957;28;89010;-37
2023/02/04 03:07:54;;;;;;;;;;;2.00;81.40;;;;;;5001143;28;90190;-37
2023/02/04 03:10:20;;;;;;;;;;;2.00;81.30;;;;;;5005206;28;87041;-37
2023/02/04 03:12:46;;;;;;;;;;;2.00;81.40;;;;;;5001799;28;89470;-37
2023/02/04 03:15:12;;;;;;;;;;;1.90;81.40;;;;;;5002280;28;87146;-37
2023/02/04 03:17:38;;;;;;;;;;;2.00;81.40;;;;;;5002262;28;89039;-37
2023/02/04 03:20:04;;;;;;;;;;;2.00;81.30;;;;;;5002019;28;89399;-37
2023/02/04 03:22:29;;;;;;;;;;;1.90;81.40;;;;;;5002139;28;87402;-37
2023/02/04 03:24:57;;;;;;;;;;;1.90;81.40;;;;;;5002487;28;88062;-37
2023/02/04 03:27:23;;;;;;;;;;;1.90;81.40;;;;;;5001736;28;89363;-37
2023/02/04 03:29:48;;;;;;;;;;;1.90;81.40;;;;;;5002191;28;87196;-37
2023/02/04 03:32:14;;;;;;;;;;;1.90;81.40;;;;;;5004510;28;87914;-37
2023/02/04 03:34:39;;;;;;;;;;;1.90;81.40;;;;;;5005647;28;88325;-37
2023/02/04 03:37:05;;;;;;;;;;;1.90;81.50;;;;;;5005466;28;88360;-38
2023/02/04 03:39:30;;;;;;;;;;;1.90;81.40;;;;;;5004982;28;89309;-37
2023/02/04 03:41:56;;;;;;;;;;;1.90;81.50;;;;;;5005853;28;87137;-37
2023/02/04 03:44:25;;;;;;;;;;;1.90;81.50;;;;;;5005443;28;88912;-37
2023/02/04 03:46:54;;;;;;;;;;;1.90;81.40;;;;;;5005007;28;89423;-37
2023/02/04 03:49:23;;;;;;;;;;;1.90;81.50;;;;;;5005959;28;86401;-37
2023/02/04 03:51:48;;;;;;;;;;;1.90;81.50;;;;;;5005273;28;88105;-37
2023/02/04 03:54:14;;;;;;;;;;;1.90;81.50;;;;;;5007689;28;89099;-37
2023/02/04 03:56:39;;;;;;;;;;;1.90;81.60;;;;;;5004810;28;89374;-37
2023/02/04 03:59:05;;;;;;;;;;;1.90;81.50;;;;;;5004758;28;89257;-37
2023/02/04 04:01:30;;;;;;;;;;;1.90;81.50;;;;;;5005306;28;87137;-37
2023/02/04 04:03:56;;;;;;;;;;;1.90;81.50;;;;;;5005022;28;88903;-37
2023/02/04 04:06:21;;;;;;;;;;;1.90;81.50;;;;;;5004431;28;89793;-37
2023/02/04 04:08:47;;;;;;;;;;;1.90;81.60;;;;;;5004752;28;87046;-37
2023/02/04 04:11:12;;;;;;;;;;;1.90;81.50;;;;;;5004885;28;88986;-37
2023/02/04 04:13:38;;;;;;;;;;;1.90;81.60;;;;;;5008124;28;89310;-37
2023/02/04 04:16:03;;;;;;;;;;;1.90;81.50;;;;;;5005052;28;87097;-37
2023/02/04 04:18:29;;;;;;;;;;;1.90;81.50;;;;;;5004936;28;87934;-37
2023/02/04 04:20:55;;;;;;;;;;;1.90;81.60;;;;;;5004134;28;88049;-37
2023/02/04 04:23:20;;;;;;;;;;;1.90;81.50;;;;;;5004634;28;89834;-37
2023/02/04 04:25:46;;;;;;;;;;;1.90;81.60;;;;;;5004284;28;89677;-37
2023/02/04 04:28:12;;;;;;;;;;;1.90;81.60;;;;;;5005094;28;87156;-37
2023/02/04 04:30:37;;;;;;;;;;;1.90;81.50;;;;;;5004985;28;87133;-37
2023/02/04 04:33:03;;;;;;;;;;;1.80;81.60;;;;;;5004260;28;88614;-37
2023/02/04 04:35:28;;;;;;;;;;;1.90;81.60;;;;;;5007577;28;88423;-37
2023/02/04 04:37:54;;;;;;;;;;;1.90;81.60;;;;;;5004518;28;88808;-37
2023/02/04 04:40:19;;;;;;;;;;;1.90;81.60;;;;;;5004638;28;87092;-37
2023/02/04 04:42:45;;;;;;;;;;;1.90;81.60;;;;;;5004519;28;89083;-37
2023/02/04 04:45:10;;;;;;;;;;;1.90;81.50;;;;;;5002443;28;90332;-37
2023/02/04 04:47:36;;;;;;;;;;;1.90;81.50;;;;;;5004361;28;87131;-37
2023/02/04 04:50:02;;;;;;;;;;;1.90;81.40;;;;;;5004460;28;88907;-37
2023/02/04 04:52:27;;;;;;;;;;;1.90;81.50;;;;;;5004026;28;89773;-37
2023/02/04 04:54:53;;;;;;;;;;;1.90;81.60;;;;;;5004481;28;87253;-37
2023/02/04 04:57:18;;;;;;;;;;;1.80;81.60;;;;;;5007040;28;88621;-37
2023/02/04 04:59:44;;;;;;;;;;;1.90;81.60;;;;;;5004489;28;87044;-37
2023/02/04 05:02:09;;;;;;;;;;;1.90;81.50;;;;;;5005129;28;87196;-37
2023/02/04 05:04:35;;;;;;;;;;;1.90;81.50;;;;;;5003791;28;89743;-37
2023/02/04 05:07:00;;;;;;;;;;;1.90;81.50;;;;;;5003955;28;91314;-37
2023/02/04 05:09:26;;;;;;;;;;;1.80;81.60;;;;;;5003470;28;88115;-37
2023/02/04 05:11:51;;;;;;;;;;;1.80;81.60;;;;;;5003594;28;89144;-37
2023/02/04 05:14:17;;;;;;;;;;;1.80;81.70;;;;;;5004084;28;87187;-37
2023/02/04 05:16:42;;;;;;;;;;;1.80;81.70;;;;;;5004005;28;89039;-37
2023/02/04 05:19:08;;;;;;;;;;;1.80;81.70;;;;;;5006939;28;87600;-37
2023/02/04 05:21:33;;;;;;;;;;;1.90;81.60;;;;;;5004134;28;88834;-37
2023/02/04 05:23:59;;;;;;;;;;;1.80;81.50;;;;;;5003083;28;89707;-37
2023/02/04 05:26:26;;;;;;;;;;;1.80;81.70;;;;;;5004319;28;86353;-37
2023/02/04 05:28:51;;;;;;;;;;;1.90;81.70;;;;;;5003985;28;87206;-37
2023/02/04 05:31:17;;;;;;;;;;;1.80;81.60;;;;;;5019153;28;90957;-37
2023/02/04 05:33:42;;;;;;;;;;;1.80;81.60;;;;;;5003041;28;88166;-37
2023/02/04 05:36:08;;;;;;;;;;;1.80;81.60;;;;;;5003733;28;89680;-37
2023/02/04 05:38:33;;;;;;;;;;;1.80;81.70;;;;;;5003084;28;89826;-37
2023/02/04 05:40:59;;;;;;;;;;;1.80;81.70;;;;;;5006742;28;87137;-37
2023/02/04 05:43:24;;;;;;;;;;;1.80;81.60;;;;;;5003205;28;88592;-37
2023/02/04 05:45:50;;;;;;;;;;;1.80;81.70;;;;;;5003569;28;87473;-37
2023/02/04 05:48:15;;;;;;;;;;;1.80;81.70;;;;;;5003647;28;87856;-37
2023/02/04 05:50:41;;;;;;;;;;;1.80;81.70;;;;;;5003850;28;89162;-37
2023/02/04 05:53:06;;;;;;;;;;;1.80;81.80;;;;;;5003225;28;87076;-37
2023/02/04 05:55:32;;;;;;;;;;;1.80;81.70;;;;;;5003340;28;88211;-37
2023/02/04 05:57:57;;;;;;;;;;;1.80;81.70;;;;;;5002264;28;90397;-37
2023/02/04 06:00:23;;;;;;;;;;;1.80;81.70;;;;;;5003120;28;87082;-37
2023/02/04 06:02:48;;;;;;;;;;;1.80;81.80;;;;;;5006120;28;87398;-37
2023/02/04 06:05:14;;;;;;;;;;;1.80;81.90;;;;;;5002830;28;87152;-37
2023/02/04 06:07:39;;;;;;;;;;;1.80;81.90;;;;;;5003181;28;88808;-37
2023/02/04 06:10:05;;;;;;;;;;;1.80;81.90;;;;;;5002825;28;88757;-37
2023/02/04 06:12:30;;;;;;;;;;;1.80;81.80;;;;;;5002946;28;87083;-37
2023/02/04 06:14:56;;;;;;;;;;;1.80;81.80;;;;;;5003953;28;86974;-37
2023/02/04 06:17:21;;;;;;;;;;;1.80;81.70;;;;;;5002617;28;89360;-37
2023/02/04 06:19:47;;;;;;;;;;;1.80;81.70;;;;;;5003316;28;87130;-37
2023/02/04 06:22:12;;;;;;;;;;;1.80;81.60;;;;;;5005066;28;88695;-37
2023/02/04 06:24:38;;;;;;;;;;;1.80;81.60;;;;;;5002890;28;87193;-37
2023/02/04 06:27:03;;;;;;;;;;;1.80;81.60;;;;;;5002844;28;89220;-37
2023/02/04 06:29:29;;;;;;;;;;;1.80;81.60;;;;;;5002494;28;89260;-37
2023/02/04 06:31:54;;;;;;;;;;;1.80;81.60;;;;;;5002690;28;87110;-37
2023/02/04 06:34:20;;;;;;;;;;;1.80;81.70;;;;;;5002892;28;88791;-37
2023/02/04 06:36:45;;;;;;;;;;;1.80;81.70;;;;;;5002592;28;87993;-37
2023/02/04 06:39:11;;;;;;;;;;;1.80;81.70;;;;;;5002974;28;86851;-37
2023/02/04 06:41:36;;;;;;;;;;;1.80;81.70;;;;;;5002705;28;87379;-37
2023/02/04 06:44:02;;;;;;;;;;;1.80;81.70;;;;;;5005555;28;88072;-37
2023/02/04 06:46:27;;;;;;;;;;;1.80;81.70;;;;;;5001805;28;88822;-37
2023/02/04 06:48:53;;;;;;;;;;;1.80;81.60;;;;;;5002164;28;88682;-37
2023/02/04 06:51:18;;;;;;;;;;;1.90;81.60;;;;;;5002540;28;87560;-37
2023/02/04 06:53:44;;;;;;;;;;;1.90;81.50;;;;;;5002721;28;87102;-37
2023/02/04 06:56:10;;;;;;;;;;;1.90;81.60;;;;;;5001980;28;89404;-37
2023/02/04 06:58:36;;;;;;;;;;;1.80;81.60;;;;;;5002471;28;87182;-37
2023/02/04 07:01:02;;;;;;;;;;;1.80;81.70;;;;;;5002540;28;87678;-37
2023/02/04 07:03:27;;;;;;;;;;;1.80;81.70;;;;;;5002478;28;88836;-37
2023/02/04 07:05:53;;;;;;;;;;;1.80;81.70;;;;;;5005143;28;88329;-37
2023/02/04 07:08:20;;;;;;;;;;;1.80;81.70;;;;;;5001241;28;89466;-37
2023/02/04 07:10:46;;;;;;;;;;;1.80;81.60;;;;;;5001791;28;88113;-37
2023/02/04 07:13:12;;;;;;;;;;;1.90;81.60;;;;;;5002411;28;88236;-37
2023/02/04 07:15:37;;;;;;;;;;;1.90;81.80;;;;;;5002251;28;88077;-37
2023/02/04 07:18:03;;;;;;;;;;;1.80;81.60;;;;;;5002183;28;87247;-37
2023/02/04 07:20:28;;;;;;;;;;;1.90;81.70;;;;;;5002142;28;88988;-37
2023/02/04 07:22:53;;;;;;;;;;;1.80;81.70;;;;;;5002186;28;88072;-37
2023/02/04 07:25:19;;;;;;;;;;;1.80;81.70;;;;;;5002276;28;87097;-37
2023/02/04 07:27:45;;;;;;;;;;;1.90;81.60;;;;;;5005232;28;88927;-37
2023/02/04 07:30:11;;;;;;;;;;;1.90;81.60;;;;;;5001875;28;87006;-37
2023/02/04 07:32:36;;;;;;;;;;;1.90;81.50;;;;;;5002148;28;89509;-37
2023/02/04 07:35:02;;;;;;;;;;;1.90;81.40;;;;;;5001141;28;89738;-37
2023/02/04 07:37:27;;;;;;;;;;;1.90;81.50;;;;;;5002284;28;87124;-37
2023/02/04 07:39:52;;;;;;;;;;;1.90;81.80;;;;;;5002035;28;88675;-37
2023/02/04 07:42:18;;;;;;;;;;;1.80;81.70;;;;;;5001683;28;89487;-37
2023/02/04 07:44:43;;;;;;;;;;;1.90;81.80;;;;;;5001848;28;87106;-37
2023/02/04 07:47:09;;;;;;;;;;;1.90;81.80;;;;;;5001866;28;88938;-37
2023/02/04 07:49:34;;;;;;;;;;;1.90;81.70;;;;;;5004310;28;89710;-37
2023/02/04 07:52:00;;;;;;;;;;;1.90;81.60;;;;;;5002325;28;89038;-37
2023/02/04 07:54:25;;;;;;;;;;;1.90;81.60;;;;;;5001290;28;89775;-37
2023/02/04 07:56:51;;;;;;;;;;;1.90;81.50;;;;;;5002129;28;87134;-37
2023/02/04 07:59:16;;;;;;;;;;;1.90;81.50;;;;;;5001601;28;88534;-37
2023/02/04 08:01:42;;;;;;;;;;;1.90;81.70;;;;;;5001231;28;89661;-37
2023/02/04 08:04:07;;;;;;;;;;;1.90;81.60;;;;;;5001846;28;87149;-37
2023/02/04 08:06:33;;;;;;;;;;;1.90;81.70;;;;;;5001081;28;88990;-37
2023/02/04 08:08:58;;;;;;;;;;;1.90;81.70;;;;;;5001539;28;88176;-37
2023/02/04 08:11:25;;;;;;;;;;;1.90;81.80;;;;;;5004320;28;86960;-37
2023/02/04 08:13:51;;;;;;;;;;;1.90;81.80;;;;;;5001310;28;89619;-37
2023/02/04 08:16:16;;;;;;;;;;;1.90;81.70;;;;;;5002174;28;86422;-37
2023/02/04 08:18:42;;;;;;;;;;;1.90;81.60;;;;;;5001682;28;88066;-37
2023/02/04 08:21:07;;;;;;;;;;;1.90;81.60;;;;;;5004184;28;89365;-37
2023/02/04 08:23:33;;;;;;;;;;;1.90;81.80;;;;;;5004502;28;88046;-37
2023/02/04 08:25:58;;;;;;;;;;;1.90;81.70;;;;;;5004875;28;89556;-37
2023/02/04 08:28:24;;;;;;;;;;;1.80;81.90;;;;;;5004554;28;89507;-37
2023/02/04 08:30:50;;;;;;;;;;;1.80;81.90;;;;;;5007818;28;87184;-37
2023/02/04 08:33:15;;;;;;;;;;;1.90;81.80;;;;;;5004427;28;89372;-37
2023/02/04 08:35:41;;;;;;;;;;;1.80;81.80;;;;;;5004767;28;87309;-37
2023/02/04 08:38:06;;;;;;;;;;;1.90;81.80;;;;;;5005019;28;87386;-37
2023/02/04 08:40:32;;;;;;;;;;;1.80;81.80;;;;;;5004452;28;88800;-38
2023/02/04 08:42:57;;;;;;;;;;;1.90;81.80;;;;;;5004499;28;87138;-37
2023/02/04 08:45:23;;;;;;;;;;;1.90;82.00;;;;;;5004609;28;88995;-37
2023/02/04 08:47:48;;;;;;;;;;;1.80;82.00;;;;;;5003444;28;90470;-37
2023/02/04 08:50:14;;;;;;;;;;;1.80;81.90;;;;;;5004567;28;87195;-37
2023/02/04 08:52:39;;;;;;;;;;;1.90;82.00;;;;;;5007228;28;88533;-37
2023/02/04 08:55:05;;;;;;;;;;;1.90;81.90;;;;;;5004222;28;87288;-37
2023/02/04 08:57:30;;;;;;;;;;;1.80;81.80;;;;;;5004355;28;89124;-37
2023/02/04 08:59:56;;;;;;;;;;;1.80;81.80;;;;;;5003763;28;88343;-37
2023/02/04 09:02:21;;;;;;;;;;;1.80;82.00;;;;;;5004300;28;87101;-37
2023/02/04 09:04:47;;;;;;;;;;;1.80;81.90;;;;;;5004773;28;88866;-37
2023/02/04 09:07:12;;;;;;;;;;;1.80;82.10;;;;;;5003580;28;88713;-37
2023/02/04 09:09:38;;;;;;;;;;;1.80;81.80;;;;;;5004140;28;87112;-37
2023/02/04 09:12:03;;;;;;;;;;;1.90;81.90;;;;;;5003318;28;88078;-37
2023/02/04 09:14:29;;;;;;;;;;;1.90;81.70;;;;;;5006481;28;89874;-37
2023/02/04 09:16:54;;;;;;;;;;;1.90;81.80;;;;;;5004002;28;88774;-37
2023/02/04 09:19:24;;;;;;;;;;;1.90;81.90;;;;;;5003841;28;89477;-37
2023/02/04 09:21:50;;;;;;;;;;;1.90;82.00;;;;;;5004007;28;87073;-37
2023/02/04 09:24:16;;;;;;;;;;;1.90;81.70;;;;;;5003733;28;88772;-37
2023/02/04 09:26:41;;;;;;;;;;;1.90;81.80;;;;;;5003529;28;89302;-37
2023/02/04 09:29:07;;;;;;;;;;;1.90;81.80;;;;;;5004764;28;86384;-37
2023/02/04 09:31:32;;;;;;;;;;;1.80;81.90;;;;;;5003422;28;88144;-37
2023/02/04 09:33:58;;;;;;;;;;;1.80;82.10;;;;;;5003336;28;88450;-37
2023/02/04 09:36:27;;;;;;;;;;;1.90;82.00;;;;;;5006175;28;87993;-37
2023/02/04 09:38:52;;;;;;;;;;;1.90;81.80;;;;;;5003580;28;89348;-37
2023/02/04 09:41:18;;;;;;;;;;;1.90;81.80;;;;;;5003708;28;86971;-37
2023/02/04 09:43:45;;;;;;;;;;;1.90;82.00;;;;;;5003573;28;88085;-37
2023/02/04 09:46:28;;;;;;;;;;;1.90;81.90;;;;;;5003081;28;88147;-37
2023/02/04 09:48:54;;;;;;;;;;;1.90;81.90;;;;;;5003498;28;87017;-37
2023/02/04 09:51:22;;;;;;;;;;;1.90;81.90;;;;;;5003549;28;88688;-37
2023/02/04 09:53:48;;;;;;;;;;;1.80;82.00;;;;;;5003651;28;87636;-37
2023/02/04 09:56:14;;;;;;;;;;;1.90;82.10;;;;;;5003744;28;87095;-37
2023/02/04 09:58:40;;;;;;;;;;;1.90;82.00;;;;;;5005856;28;88741;-37
2023/02/04 10:01:16;;;;;;;;;;;1.80;82.00;;;;;;5002688;28;87816;-37
2023/02/04 10:03:45;;;;;;;;;;;1.90;82.00;;;;;;5003228;28;89197;-37
2023/02/04 10:06:15;;;;;;;;;;;1.90;81.80;;;;;;5002176;28;89356;-37
2023/02/04 10:08:41;;;;;;;;;;;1.80;81.90;;;;;;5002966;28;87609;-37
2023/02/04 10:11:08;;;;;;;;;;;1.80;82.40;;;;;;5003378;28;87436;-37
2023/02/04 10:13:38;;;;;;;;;;;1.80;82.20;;;;;;5002576;28;89527;-37
2023/02/04 10:16:11;;;;;;;;;;;1.80;82.00;;;;;;5003257;28;87183;-37
2023/02/04 10:18:36;;;;;;;;;;;1.80;82.10;;;;;;5006040;28;89029;-37
2023/02/04 10:21:17;;;;;;;;;;;1.90;82.00;;;;;;5002984;28;87131;-37
2023/02/04 10:23:44;;;;;;;;;;;1.80;82.10;;;;;;5002881;28;88738;-37
2023/02/04 10:26:13;;;;;;;;;;;1.80;82.30;;;;;;5002033;28;88974;-37
2023/02/04 10:28:39;;;;;;;;;;;1.90;82.00;;;;;;5002683;28;87116;-37
2023/02/04 10:31:07;;;;;;;;;;;1.90;82.20;;;;;;5002906;28;87565;-37
2023/02/04 10:33:34;;;;;;;;;;;1.90;82.20;;;;;;5002411;28;89407;-37
2023/02/04 10:36:00;;;;;;;;;;;1.90;82.10;;;;;;5002852;28;87006;-37
2023/02/04 10:38:25;;;;;;;;;;;1.90;82.10;;;;;;5002704;28;88759;-37
2023/02/04 10:41:04;;;;;;;;;;;1.90;82.00;;;;;;5005524;28;87392;-37
2023/02/04 10:43:30;;;;;;;;;;;1.90;82.10;;;;;;5002413;28;88877;-37
2023/02/04 10:46:02;;;;;;;;;;;1.90;82.20;;;;;;5002313;28;89015;-37
2023/02/04 10:48:29;;;;;;;;;;;1.90;82.30;;;;;;5002638;28;87186;-37
2023/02/04 10:50:55;;;;;;;;;;;1.90;82.10;;;;;;5002070;28;88870;-37
2023/02/04 10:56:16;;;;;;;;;;;1.90;82.40;;;;;;5002113;28;87051;-38
2023/02/04 10:58:42;;;;;;;;;;;1.90;82.20;;;;;;5002493;28;88712;-37
2023/02/04 11:01:11;;;;;;;;;;;1.90;82.20;;;;;;5002422;28;89521;-37
2023/02/04 11:03:37;;;;;;;;;;;1.90;82.20;;;;;;5005321;28;87145;-37
2023/02/04 11:06:14;;;;;;;;;;;1.90;82.20;;;;;;5001630;28;89516;-37
2023/02/04 11:08:40;;;;;;;;;;;1.90;82.20;;;;;;5003086;28;86648;-37
2023/02/04 11:11:14;;;;;;;;;;;1.90;82.40;;;;;;5002466;28;87010;-37
2023/02/04 11:13:49;;;;;;;;;;;1.90;82.40;;;;;;5001878;28;89585;-38
2023/02/04 11:16:17;;;;;;;;;;;1.90;82.40;;;;;;5001952;28;88066;-37
2023/02/04 11:18:56;;;;;;;;;;;1.90;82.50;;;;;;5002057;28;89044;-37
2023/02/04 11:21:24;;;;;;;;;;;1.90;82.20;;;;;;5001689;28;88163;-37
2023/02/04 11:24:01;;;;;;;;;;;1.90;82.50;;;;;;5001953;28;87230;-37
2023/02/04 11:26:43;;;;;;;;;;;1.90;82.90;;;;;;5004606;28;88678;-37
2023/02/04 11:29:14;;;;;;;;;;;1.90;82.20;;;;;;5002455;28;87250;-37
2023/02/04 11:31:54;;;;;;;;;;;1.90;82.40;;;;;;5002044;28;88425;-37
2023/02/04 11:34:23;;;;;;;;;;;1.90;82.50;;;;;;5002128;28;87961;-37
2023/02/04 11:37:00;;;;;;;;;;;1.90;82.50;;;;;;5002077;28;87172;-37
2023/02/04 11:39:34;;;;;;;;;;;1.90;82.30;;;;;;5002171;28;88016;-37
2023/02/04 11:42:00;;;;;;;;;;;1.90;83.10;;;;;;5000985;28;90319;-37
2023/02/04 11:44:26;;;;;;;;;;;1.90;82.20;;;;;;5001644;28;88342;-37
2023/02/04 11:46:54;;;;;;;;;;;1.90;82.40;;;;;;5001916;28;88915;-37
2023/02/04 11:49:20;;;;;;;;;;;1.90;82.50;;;;;;5004376;28;89494;-37
2023/02/04 11:51:46;;;;;;;;;;;2.00;82.50;;;;;;5002416;28;87537;-37
2023/02/04 11:54:12;;;;;;;;;;;1.90;82.50;;;;;;5002899;28;89335;-37
2023/02/04 11:56:37;;;;;;;;;;;1.90;82.60;;;;;;5005261;28;87198;-37
2023/02/04 11:59:03;;;;;;;;;;;1.90;82.50;;;;;;5005633;28;87926;-37
2023/02/04 12:01:30;;;;;;;;;;;1.90;82.60;;;;;;5005125;28;88095;-37
2023/02/04 12:03:57;;;;;;;;;;;1.90;82.30;;;;;;5005039;28;87188;-37
2023/02/04 12:06:23;;;;;;;;;;;1.90;82.50;;;;;;5004059;28;88646;-37
2023/02/04 12:08:49;;;;;;;;;;;1.80;82.60;;;;;;5004835;28;88568;-38
2023/02/04 12:11:29;;;;;;;;;;;1.80;82.70;;;;;;5007949;28;87170;-37
2023/02/04 12:13:56;;;;;;;;;;;1.80;82.90;;;;;;5004330;28;89388;-38
2023/02/04 12:16:22;;;;;;;;;;;1.90;82.90;;;;;;5004882;28;87066;-38
2023/02/04 12:18:47;;;;;;;;;;;1.80;82.80;;;;;;5005141;28;87590;-37
2023/02/04 12:21:13;;;;;;;;;;;1.90;82.80;;;;;;5004830;28;87981;-37
2023/02/04 12:23:39;;;;;;;;;;;1.90;83.00;;;;;;5005293;28;86382;-38
2023/02/04 12:26:04;;;;;;;;;;;1.90;82.60;;;;;;5004940;28;86977;-37
2023/02/04 12:28:30;;;;;;;;;;;1.90;82.80;;;;;;5004281;28;89348;-37
2023/02/04 12:30:55;;;;;;;;;;;1.90;82.90;;;;;;5007031;28;87943;-38
2023/02/04 12:33:23;;;;;;;;;;;2.00;82.70;;;;;;5004266;28;89603;-37
2023/02/04 12:35:49;;;;;;;;;;;2.00;82.70;;;;;;5004668;28;87090;-37
2023/02/04 12:38:15;;;;;;;;;;;1.90;82.60;;;;;;5004653;28;88782;-37
2023/02/04 12:40:40;;;;;;;;;;;1.90;83.00;;;;;;5004394;28;89662;-37
2023/02/04 12:43:06;;;;;;;;;;;1.90;82.80;;;;;;5004680;28;87213;-37
2023/02/04 12:45:31;;;;;;;;;;;1.90;82.80;;;;;;5004512;28;88658;-37
2023/02/04 12:47:57;;;;;;;;;;;1.90;83.00;;;;;;5004715;28;87579;-38
2023/02/04 12:50:23;;;;;;;;;;;1.90;82.60;;;;;;5004402;28;87043;-37
2023/02/04 12:52:52;;;;;;;;;;;1.90;82.70;;;;;;5007331;28;86962;-37
2023/02/04 12:55:18;;;;;;;;;;;1.90;83.00;;;;;;5003733;28;88044;-37
2023/02/04 12:57:44;;;;;;;;;;;1.90;82.80;;;;;;5004172;28;89710;-37
2023/02/04 13:00:12;;;;;;;;;;;1.80;82.90;;;;;;5004158;28;89476;-37
2023/02/04 13:02:37;;;;;;;;;;;1.90;83.00;;;;;;5004481;28;86838;-37
2023/02/04 13:05:03;;;;;;;;;;;1.90;82.60;;;;;;5003467;28;87375;-37
2023/02/04 13:07:28;;;;;;;;;;;1.90;82.90;;;;;;5003581;28;89740;-37
2023/02/04 13:09:54;;;;;;;;;;;1.90;83.00;;;;;;5004084;28;87099;-37
2023/02/04 13:12:19;;;;;;;;;;;1.90;82.90;;;;;;5004524;28;87151;-37
2023/02/04 13:14:45;;;;;;;;;;;1.90;82.90;;;;;;5006624;28;88460;-37
2023/02/04 13:17:11;;;;;;;;;;;1.90;83.10;;;;;;5004355;28;88662;-37
2023/02/04 13:19:36;;;;;;;;;;;1.90;82.90;;;;;;5003201;28;90645;-37
2023/02/04 13:22:02;;;;;;;;;;;1.80;83.00;;;;;;5004405;28;87688;-37
2023/02/04 13:24:27;;;;;;;;;;;1.80;83.20;;;;;;5003810;28;88855;-37
2023/02/04 13:26:53;;;;;;;;;;;1.80;83.30;;;;;;5003485;28;88362;-38
2023/02/04 13:29:18;;;;;;;;;;;1.90;83.30;;;;;;5003789;28;87015;-37
2023/02/04 13:31:44;;;;;;;;;;;1.90;83.00;;;;;;5003782;28;88683;-38
2023/02/04 13:34:09;;;;;;;;;;;1.80;83.20;;;;;;5003840;28;88022;-37
2023/02/04 13:36:35;;;;;;;;;;;1.80;83.40;;;;;;5007350;28;86331;-38
2023/02/04 13:39:00;;;;;;;;;;;1.80;83.30;;;;;;5003444;28;88956;-37
2023/02/04 13:41:26;;;;;;;;;;;1.80;83.30;;;;;;5003555;28;87055;-37
2023/02/04 13:43:52;;;;;;;;;;;1.80;83.20;;;;;;5003081;28;87982;-38
2023/02/04 13:46:17;;;;;;;;;;;1.80;83.20;;;;;;5003552;28;87864;-37
2023/02/04 13:48:43;;;;;;;;;;;1.90;83.30;;;;;;5003687;28;87333;-37
2023/02/04 13:51:08;;;;;;;;;;;1.90;83.10;;;;;;5003686;28;87597;-37
2023/02/04 13:53:34;;;;;;;;;;;1.90;83.20;;;;;;5003016;28;89775;-37
2023/02/04 13:56:00;;;;;;;;;;;1.90;83.10;;;;;;5003420;28;87149;-37
2023/02/04 13:58:26;;;;;;;;;;;1.90;83.40;;;;;;5005801;28;88819;-37
2023/02/04 14:00:56;;;;;;;;;;;1.90;83.30;;;;;;5003735;28;86445;-38
2023/02/04 14:03:24;;;;;;;;;;;1.90;83.20;;;;;;5003481;28;88196;-37
2023/02/04 14:05:50;;;;;;;;;;;1.90;83.40;;;;;;5002318;28;89512;-37
2023/02/04 14:08:16;;;;;;;;;;;1.80;83.50;;;;;;5002549;28;87773;-38
2023/02/04 14:10:41;;;;;;;;;;;1.80;83.60;;;;;;5003209;28;90056;-38
2023/02/04 14:13:07;;;;;;;;;;;1.80;83.60;;;;;;5002582;28;89294;-38
2023/02/04 14:15:36;;;;;;;;;;;1.80;83.50;;;;;;5003130;28;86876;-37
2023/02/04 14:18:03;;;;;;;;;;;1.80;83.70;;;;;;5003074;28;88960;-37
2023/02/04 14:20:29;;;;;;;;;;;1.80;83.50;;;;;;5005596;28;89215;-38
2023/02/04 14:22:54;;;;;;;;;;;1.80;83.70;;;;;;5003019;28;88620;-38
2023/02/04 14:25:20;;;;;;;;;;;1.90;83.40;;;;;;5003454;28;86591;-38
2023/02/04 14:27:45;;;;;;;;;;;1.90;83.50;;;;;;5003023;28;87083;-37